Powersville, Georgia
Current Conditions -  °F | °C
As of 3:53 AM on Monday 24 Nov 2014 (Local Time) from KMCN Reporting Station
Overcast Overcast  
Wind Chill: 18°   Ceiling: 800
Heat Index: 18°   Visibility: 10mi
Dew Point: 17°   Wind: 6mph
Humidity: 96%   Direction: 210°SSW
Pressure: 29.79"   Gusts: NA
Location:  32.6425°N, 83.775°W
Report Text: KMCN 240853Z AUTO 21005KT 10SM OVC008 18/17 A2979 RMK AO2 SLP083 T01780172 58004 TSNO
Loading
Personal Weather Stations






























Interactive Weather Map New forecast layout! Learn more

10-Day Weather Forecast

Advertisements
Track Severe Weather on mobile